Latest Weather Observations for Banana Bank

IDQ60801

Issued at 5:02 pm EST Wednesday 4 March 2015 (issued every 30 minutes, with the page automatically refreshed every 10 minutes)

About weather observations | Map of weather stations | Latest weather observations for QLD | Other Formats
Station Details ID: 040925 Name: BANANA BANK NORTH BEACON Lat: -27.53 Lon: 153.33 Height: 7.0 m
Data from the previous 72 hours. | See also: Recent months for locations in Queensland
Date/Time
EST
Temp
°C
App
Temp
°C
Dew
Point
Rel
Hum
%
Delta-T
°C
Wind Press
QNH
hPa
Press
MSL
hPa
Rain
since 9 am
mm
Dir
 
Spd
km/h
Gust
km/h
Spd
kts
Gust
kts
04/05:00pm - - - - - NNE 17 22 9 12 - - -
04/04:30pm - - - - - NNE 17 20 9 11 - - -
04/04:00pm - - - - - N 15 19 8 10 - - -
04/03:30pm - - - - - N 13 17 7 9 - - -
04/03:00pm - - - - - N 15 19 8 10 - - -
04/02:30pm - - - - - N 15 19 8 10 - - -
04/02:00pm - - - - - N 13 15 7 8 - - -
04/01:30pm - - - - - N 11 15 6 8 - - -
04/01:00pm - - - - - N 11 13 6 7 - - -
04/12:30pm - - - - - NNW 9 11 5 6 - - -
04/12:00pm - - - - - NW 9 11 5 6 - - -
04/11:30am - - - - - NW 11 15 6 8 - - -
04/11:00am - - - - - NW 11 15 6 8 - - -
04/10:30am - - - - - W 4 7 2 4 - - -
04/10:00am - - - - - CALM 0 0 0 0 - - -
04/09:30am - - - - - CALM 0 0 0 0 - - -
04/09:00am - - - - - S 4 6 2 3 - - -
04/08:30am - - - - - SSW 4 6 2 3 - - -
04/08:00am - - - - - S 4 6 2 3 - - -
04/07:30am - - - - - SSW 7 9 4 5 - - -
04/07:00am - - - - - SSW 6 7 3 4 - - -
04/06:30am - - - - - SSW 9 11 5 6 - - -
04/06:00am - - - - - SSW 11 13 6 7 - - -
04/05:30am - - - - - SSW 9 11 5 6 - - -
04/05:00am - - - - - SSW 11 13 6 7 - - -
04/04:30am - - - - - SSW 7 9 4 5 - - -
04/04:00am - - - - - SSE 4 7 2 4 - - -
04/03:30am - - - - - SSW 6 6 3 3 - - -
04/03:00am - - - - - SSW 6 7 3 4 - - -
04/02:30am - - - - - S 6 7 3 4 - - -
04/02:00am - - - - - SSW 7 9 4 5 - - -
04/01:30am - - - - - SE 7 13 4 7 - - -
04/01:00am - - - - - ESE 9 11 5 6 - - -
04/12:30am - - - - - ESE 11 13 6 7 - - -
04/12:00am - - - - - ESE 13 15 7 8 - - -
 
Date/Time
EST
Temp
°C
App
Temp
°C
Dew
Point
Rel
Hum
%
Delta-T
°C
Wind Press
QNH
hPa
Press
MSL
hPa
Rain
since 9 am
mm
Dir
 
Spd
km/h
Gust
km/h
Spd
kts
Gust
kts
03/11:30pm - - - - - ESE 13 17 7 9 - - -
03/11:00pm - - - - - SE 13 15 7 8 - - -
03/10:30pm - - - - - SE 13 17 7 9 - - -
03/10:00pm - - - - - SE 15 19 8 10 - - -
03/09:30pm - - - - - ESE 11 17 6 9 - - -
03/09:00pm - - - - - ESE 13 17 7 9 - - -
03/08:30pm - - - - - ESE 15 17 8 9 - - -
03/08:00pm - - - - - ESE 15 17 8 9 - - -
03/07:30pm - - - - - ESE 15 19 8 10 - - -
03/07:00pm - - - - - ESE 15 19 8 10 - - -
03/06:30pm - - - - - ESE 17 20 9 11 - - -
03/06:00pm - - - - - E 19 22 10 12 - - -
03/05:30pm - - - - - E 19 22 10 12 - - -
03/05:00pm - - - - - ESE 17 20 9 11 - - -
03/04:30pm - - - - - ESE 19 22 10 12 - - -
03/04:00pm - - - - - ESE 19 22 10 12 - - -
03/03:30pm - - - - - ESE 17 20 9 11 - - -
03/03:00pm - - - - - ESE 17 19 9 10 - - -
03/02:30pm - - - - - ESE 17 20 9 11 - - -
03/02:00pm - - - - - SE 17 22 9 12 - - -
03/01:30pm - - - - - SE 17 22 9 12 - - -
03/01:00pm - - - - - SE 17 20 9 11 - - -
03/12:30pm - - - - - SE 17 20 9 11 - - -
03/12:00pm - - - - - SE 17 19 9 10 - - -
03/11:30am - - - - - SE 17 22 9 12 - - -
03/11:00am - - - - - SE 17 22 9 12 - - -
03/10:30am - - - - - SSE 20 26 11 14 - - -
03/10:00am - - - - - SSE 19 24 10 13 - - -
03/09:30am - - - - - SSE 19 22 10 12 - - -
03/09:00am - - - - - SSE 20 24 11 13 - - -
03/08:30am - - - - - S 17 22 9 12 - - -
03/08:00am - - - - - S 15 19 8 10 - - -
03/07:30am - - - - - S 15 19 8 10 - - -
03/07:00am - - - - - SSW 13 19 7 10 - - -
03/06:30am - - - - - SW 15 17 8 9 - - -
03/06:00am - - - - - S 11 13 6 7 - - -
03/05:30am - - - - - S 19 24 10 13 - - -
03/05:00am - - - - - S 24 30 13 16 - - -
03/04:30am - - - - - S 19 24 10 13 - - -
03/04:00am - - - - - S 17 20 9 11 - - -
03/03:30am - - - - - SSW 17 20 9 11 - - -
03/03:00am - - - - - SSW 19 22 10 12 - - -
03/02:30am - - - - - S 17 20 9 11 - - -
03/02:00am - - - - - S 20 26 11 14 - - -
03/01:30am - - - - - SSW 19 24 10 13 - - -
03/01:00am - - - - - S 20 26 11 14 - - -
03/12:30am - - - - - S 20 26 11 14 - - -
03/12:00am - - - - - S 20 24 11 13 - - -
 
Date/Time
EST
Temp
°C
App
Temp
°C
Dew
Point
Rel
Hum
%
Delta-T
°C
Wind Press
QNH
hPa
Press
MSL
hPa
Rain
since 9 am
mm
Dir
 
Spd
km/h
Gust
km/h
Spd
kts
Gust
kts
02/11:30pm - - - - - S 20 26 11 14 - - -
02/11:00pm - - - - - S 22 28 12 15 - - -
02/10:30pm - - - - - S 28 33 15 18 - - -
02/10:00pm - - - - - SSE 26 30 14 16 - - -
02/09:30pm - - - - - S 28 39 15 21 - - -
02/09:00pm - - - - - SSE 28 35 15 19 - - -
02/08:30pm - - - - - SSE 28 33 15 18 - - -
02/08:00pm - - - - - SSE 28 35 15 19 - - -
02/07:30pm - - - - - SSE 32 39 17 21 - - -
02/07:00pm - - - - - SSE 32 41 17 22 - - -
02/06:30pm - - - - - SE 33 41 18 22 - - -
02/06:00pm - - - - - SSE 37 44 20 24 - - -
02/05:30pm - - - - - SSE 39 48 21 26 - - -
02/05:00pm - - - - - SE 33 44 18 24 - - -
02/04:30pm - - - - - SE 39 46 21 25 - - -
02/04:00pm - - - - - SE 43 50 23 27 - - -
02/03:30pm - - - - - SE 39 46 21 25 - - -
02/03:00pm - - - - - SE 41 48 22 26 - - -
02/02:30pm - - - - - SE 44 54 24 29 - - -
02/02:00pm - - - - - SE 43 50 23 27 - - -
02/01:30pm - - - - - SE 33 39 18 21 - - -
02/01:00pm - - - - - SE 35 39 19 21 - - -
02/12:30pm - - - - - SE 32 37 17 20 - - -
02/12:00pm - - - - - SSE 32 39 17 21 - - -
02/11:30am - - - - - SSE 33 39 18 21 - - -
02/11:00am - - - - - SSE 33 39 18 21 - - -
02/10:30am - - - - - SSE 30 35 16 19 - - -
02/10:00am - - - - - SSE 33 37 18 20 - - -
02/09:30am - - - - - SSE 26 32 14 17 - - -
02/09:00am - - - - - SSE 28 32 15 17 - - -
02/08:30am - - - - - SSE 17 20 9 11 - - -
02/08:00am - - - - - S 13 17 7 9 - - -
02/07:30am - - - - - SSW 9 11 5 6 - - -
02/07:00am - - - - - SSW 11 13 6 7 - - -
02/06:30am - - - - - SSW 15 19 8 10 - - -
02/06:00am - - - - - S 15 17 8 9 - - -
02/05:30am - - - - - S 11 13 6 7 - - -
02/05:00am - - - - - S 13 15 7 8 - - -
02/04:30am - - - - - S 13 15 7 8 - - -
02/04:00am - - - - - S 9 11 5 6 - - -
02/03:30am - - - - - NNE 2 4 1 2 - - -
02/03:00am - - - - - NNE 4 6 2 3 - - -
02/02:30am - - - - - NE 6 7 3 4 - - -
02/02:00am - - - - - NNE 6 6 3 3 - - -
02/01:30am - - - - - NNE 7 9 4 5 - - -
02/01:00am - - - - - NE 7 7 4 4 - - -
02/12:30am - - - - - N 7 7 4 4 - - -
02/12:00am - - - - - NNE 7 9 4 5 - - -
 
Date/Time
EST
Temp
°C
App
Temp
°C
Dew
Point
Rel
Hum
%
Delta-T
°C
Wind Press
QNH
hPa
Press
MSL
hPa
Rain
since 9 am
mm
Dir
 
Spd
km/h
Gust
km/h
Spd
kts
Gust
kts
01/11:30pm - - - - - NE 7 9 4 5 - - -
01/11:00pm - - - - - N 9 13 5 7 - - -
01/10:30pm - - - - - N 15 19 8 10 - - -
01/10:00pm - - - - - N 20 24 11 13 - - -
01/09:30pm - - - - - N 15 20 8 11 - - -
01/09:00pm - - - - - NNE 9 13 5 7 - - -
01/08:30pm - - - - - NNE 13 17 7 9 - - -
01/08:00pm - - - - - NNE 15 19 8 10 - - -
01/07:30pm - - - - - NNE 15 20 8 11 - - -
01/07:00pm - - - - - NNE 17 20 9 11 - - -
01/06:30pm - - - - - NNE 17 20 9 11 - - -
01/06:00pm - - - - - NNE 17 20 9 11 - - -
01/05:30pm - - - - - NNE 17 20 9 11 - - -

Other Formats:

Comma delimited format used in spreadsheet applications
http://www.bom.gov.au/fwo/IDQ60801/IDQ60801.94591.axf

JavaScript Object Notation format (JSON) in row-major order
http://www.bom.gov.au/fwo/IDQ60801/IDQ60801.94591.json